메인 페이지
METAR-TAF:

METAR-TAF

공항 :

하츠필드 잭슨 애틀랜타 국제공항

애틀랜타, 조지아, 미국

위도: 33-38-25N, 경도: 084-25-37W, 고도: 313m

현재 날씨관측

예보는 53분 전, 17:52시(UTC)에 발표되었습니다.
북서10kt
온도 29°C
습도 55%
기압 1019 hPa
시정: 16.1km
고도 4000ft 상공 구름 조금
고도 12000ft 상공 구름 조금
고도 15000ft 상공 구름 보통
고도 25000ft 상공 구름 많음

METAR: KATL 251752Z 32010KT 10SM FEW040 FEW120 SCT150 BKN250 29/19 A3010 RMK AO2 SLP182 T02940189 10294 20222 50001

시각: 14:45 (18:45 UTC)

예보

예보는 1 시간 13분 전, 17:32시(UTC)에 발표되었습니다.
예보 대상 시간: 25일 18시부터 26일 24시까지 (UTC)
북서10kt, 순간 최대 풍속 18kt
시정: 10km
고도 3000ft 상공 구름 조금
고도 12000ft 상공 구름 보통
26일 0000시부터 (UTC)
북서7kt
시정: 10km
고도 25000ft 상공 구름 조금
26일 0600시부터 (UTC)
북북서4kt
시정: 10km
고도 25000ft 상공 구름 조금
26일 1600시부터 (UTC)
북북서6kt
시정: 10km
고도 5000ft 상공 구름 보통
26일 2200시부터 (UTC)
북동6kt
시정: 10km
고도 15000ft 상공 구름 보통

TAF: KATL 251732Z 2518/2624 32010G18KT P6SM FEW030 SCT120 FM260000 32007KT P6SM FEW250 FM260600 34004KT P6SM FEW250 FM261600 34006KT P6SM SCT050 FM262200 04006KT P6SM SCT150

4,000개 이상의 공항 관측 자료 및 예보 (METAR 및 TAF 보고).

지도상에서 검색 가능한 기상관측소가 노란 점과 빨간 점으로 표시되어 있습니다.

기상관측소 명을 보려면 표시 위로 마우스를 이동하세요.

날씨 관측과 예보를 보려면 클릭하세요.

지도 변경 : 확대하려면 엑스 표시가 있는 녹색 버튼, 축소하려면 빼기 표시가 있는 녹색 버튼, 다음 페이지의 지도를 보려면 녹색 화살표를 클릭하세요.


METAR-TAF: